sensor_id;sensor_type;location;lat;lon;timestamp;P1;durP1;ratioP1;P2;durP2;ratioP2
43580;SDS011;29175;51.030;4.606;2023-09-08T00:02:12;856.58;;;41.75;;
43580;SDS011;29175;51.030;4.606;2023-09-08T00:04:37;944.33;;;42.50;;
43580;SDS011;29175;51.030;4.606;2023-09-08T00:07:03;1067.28;;;47.13;;
43580;SDS011;29175;51.030;4.606;2023-09-08T00:09:29;1298.18;;;51.25;;
43580;SDS011;29175;51.030;4.606;2023-09-08T00:11:56;1140.93;;;48.00;;
43580;SDS011;29175;51.030;4.606;2023-09-08T00:14:22;1150.63;;;46.20;;
43580;SDS011;29175;51.030;4.606;2023-09-08T00:16:47;1176.18;;;52.88;;
43580;SDS011;29175;51.030;4.606;2023-09-08T00:19:16;1424.95;;;73.75;;
43580;SDS011;29175;51.030;4.606;2023-09-08T00:21:43;1427.70;;;65.88;;
43580;SDS011;29175;51.030;4.606;2023-09-08T00:24:08;1127.85;;;44.88;;
43580;SDS011;29175;51.030;4.606;2023-09-08T00:26:35;844.15;;;39.60;;
43580;SDS011;29175;51.030;4.606;2023-09-08T00:29:01;932.05;;;43.28;;
43580;SDS011;29175;51.030;4.606;2023-09-08T00:31:26;873.38;;;41.78;;
43580;SDS011;29175;51.030;4.606;2023-09-08T00:33:54;984.58;;;41.20;;
43580;SDS011;29175;51.030;4.606;2023-09-08T00:36:20;997.53;;;48.08;;
43580;SDS011;29175;51.030;4.606;2023-09-08T00:38:46;1182.32;;;56.15;;
43580;SDS011;29175;51.030;4.606;2023-09-08T00:41:11;830.13;;;37.63;;
43580;SDS011;29175;51.030;4.606;2023-09-08T00:43:37;991.50;;;46.95;;
43580;SDS011;29175;51.030;4.606;2023-09-08T00:46:04;1131.97;;;52.40;;
43580;SDS011;29175;51.030;4.606;2023-09-08T00:48:33;892.95;;;39.28;;
43580;SDS011;29175;51.030;4.606;2023-09-08T00:51:02;948.20;;;41.17;;
43580;SDS011;29175;51.030;4.606;2023-09-08T00:53:30;715.50;;;35.60;;
43580;SDS011;29175;51.030;4.606;2023-09-08T00:55:57;1403.07;;;68.10;;
43580;SDS011;29175;51.030;4.606;2023-09-08T00:58:26;929.13;;;42.33;;
43580;SDS011;29175;51.030;4.606;2023-09-08T01:00:51;1081.32;;;51.03;;
43580;SDS011;29175;51.030;4.606;2023-09-08T01:03:17;1299.38;;;59.05;;
43580;SDS011;29175;51.030;4.606;2023-09-08T01:05:44;951.42;;;54.08;;
43580;SDS011;29175;51.030;4.606;2023-09-08T01:08:11;1048.97;;;41.50;;
43580;SDS011;29175;51.030;4.606;2023-09-08T01:10:38;942.55;;;35.70;;
43580;SDS011;29175;51.030;4.606;2023-09-08T01:13:08;659.08;;;36.92;;
43580;SDS011;29175;51.030;4.606;2023-09-08T01:15:35;1091.40;;;56.08;;
43580;SDS011;29175;51.030;4.606;2023-09-08T01:18:02;787.33;;;34.05;;
43580;SDS011;29175;51.030;4.606;2023-09-08T01:21:03;1085.55;;;45.83;;
43580;SDS011;29175;51.030;4.606;2023-09-08T01:26:30;706.50;;;28.90;;
43580;SDS011;29175;51.030;4.606;2023-09-08T01:29:02;923.00;;;47.88;;
43580;SDS011;29175;51.030;4.606;2023-09-08T01:31:29;951.78;;;41.53;;
43580;SDS011;29175;51.030;4.606;2023-09-08T01:33:55;1246.35;;;53.88;;
43580;SDS011;29175;51.030;4.606;2023-09-08T01:36:24;756.55;;;39.22;;
43580;SDS011;29175;51.030;4.606;2023-09-08T01:38:50;948.53;;;51.90;;
43580;SDS011;29175;51.030;4.606;2023-09-08T01:41:16;833.40;;;36.65;;
43580;SDS011;29175;51.030;4.606;2023-09-08T01:43:44;804.95;;;38.35;;
43580;SDS011;29175;51.030;4.606;2023-09-08T01:46:10;1021.95;;;44.13;;
43580;SDS011;29175;51.030;4.606;2023-09-08T01:48:37;519.78;;;27.42;;
43580;SDS011;29175;51.030;4.606;2023-09-08T01:51:03;941.30;;;38.38;;
43580;SDS011;29175;51.030;4.606;2023-09-08T01:53:28;1115.18;;;45.17;;
43580;SDS011;29175;51.030;4.606;2023-09-08T01:55:54;1096.75;;;39.95;;
43580;SDS011;29175;51.030;4.606;2023-09-08T01:58:20;1034.07;;;55.35;;
43580;SDS011;29175;51.030;4.606;2023-09-08T02:00:53;1002.42;;;50.65;;
43580;SDS011;29175;51.030;4.606;2023-09-08T02:03:19;733.67;;;36.95;;
43580;SDS011;29175;51.030;4.606;2023-09-08T02:05:45;898.55;;;42.83;;
43580;SDS011;29175;51.030;4.606;2023-09-08T02:08:12;681.90;;;29.02;;
43580;SDS011;29175;51.030;4.606;2023-09-08T02:10:41;669.88;;;34.45;;
43580;SDS011;29175;51.030;4.606;2023-09-08T02:13:08;283.20;;;18.20;;
43580;SDS011;29175;51.030;4.606;2023-09-08T02:15:36;623.42;;;30.00;;
43580;SDS011;29175;51.030;4.606;2023-09-08T02:18:02;967.78;;;41.13;;
43580;SDS011;29175;51.030;4.606;2023-09-08T02:20:29;790.10;;;37.95;;
43580;SDS011;29175;51.030;4.606;2023-09-08T02:22:57;771.45;;;38.60;;
43580;SDS011;29175;51.030;4.606;2023-09-08T02:25:23;804.38;;;30.27;;
43580;SDS011;29175;51.030;4.606;2023-09-08T02:27:50;638.45;;;30.27;;
43580;SDS011;29175;51.030;4.606;2023-09-08T02:30:17;823.67;;;37.60;;
43580;SDS011;29175;51.030;4.606;2023-09-08T02:32:43;568.70;;;27.95;;
43580;SDS011;29175;51.030;4.606;2023-09-08T02:35:10;815.00;;;35.85;;
43580;SDS011;29175;51.030;4.606;2023-09-08T02:37:35;602.58;;;34.90;;
43580;SDS011;29175;51.030;4.606;2023-09-08T02:40:02;421.38;;;23.52;;
43580;SDS011;29175;51.030;4.606;2023-09-08T02:42:32;624.10;;;34.45;;
43580;SDS011;29175;51.030;4.606;2023-09-08T02:44:57;485.73;;;25.17;;
43580;SDS011;29175;51.030;4.606;2023-09-08T02:47:23;367.80;;;22.13;;
43580;SDS011;29175;51.030;4.606;2023-09-08T02:49:49;885.50;;;36.92;;
43580;SDS011;29175;51.030;4.606;2023-09-08T02:52:16;500.90;;;30.10;;
43580;SDS011;29175;51.030;4.606;2023-09-08T02:54:44;583.50;;;28.70;;
43580;SDS011;29175;51.030;4.606;2023-09-08T02:57:10;603.67;;;34.50;;
43580;SDS011;29175;51.030;4.606;2023-09-08T02:59:36;501.45;;;27.73;;
43580;SDS011;29175;51.030;4.606;2023-09-08T03:02:02;522.50;;;26.88;;
43580;SDS011;29175;51.030;4.606;2023-09-08T03:04:28;821.08;;;40.55;;
43580;SDS011;29175;51.030;4.606;2023-09-08T03:06:55;892.35;;;42.42;;
43580;SDS011;29175;51.030;4.606;2023-09-08T03:09:20;600.70;;;28.73;;
43580;SDS011;29175;51.030;4.606;2023-09-08T03:11:46;588.10;;;27.15;;
43580;SDS011;29175;51.030;4.606;2023-09-08T03:14:12;753.42;;;33.75;;
43580;SDS011;29175;51.030;4.606;2023-09-08T03:16:38;355.15;;;19.08;;
43580;SDS011;29175;51.030;4.606;2023-09-08T03:19:03;378.35;;;23.38;;
43580;SDS011;29175;51.030;4.606;2023-09-08T03:21:29;710.97;;;34.47;;
43580;SDS011;29175;51.030;4.606;2023-09-08T03:23:55;476.80;;;26.23;;
43580;SDS011;29175;51.030;4.606;2023-09-08T03:28:49;390.52;;;21.85;;
43580;SDS011;29175;51.030;4.606;2023-09-08T03:31:15;514.53;;;24.33;;
43580;SDS011;29175;51.030;4.606;2023-09-08T03:33:42;658.92;;;31.08;;
43580;SDS011;29175;51.030;4.606;2023-09-08T03:36:08;368.40;;;24.67;;
43580;SDS011;29175;51.030;4.606;2023-09-08T03:38:33;676.20;;;38.70;;
43580;SDS011;29175;51.030;4.606;2023-09-08T03:41:02;567.55;;;31.85;;
43580;SDS011;29175;51.030;4.606;2023-09-08T03:43:29;745.03;;;37.78;;
43580;SDS011;29175;51.030;4.606;2023-09-08T03:45:55;353.23;;;22.88;;
43580;SDS011;29175;51.030;4.606;2023-09-08T03:48:22;535.17;;;23.25;;
43580;SDS011;29175;51.030;4.606;2023-09-08T03:50:49;677.47;;;30.20;;
43580;SDS011;29175;51.030;4.606;2023-09-08T03:53:15;696.20;;;33.50;;
43580;SDS011;29175;51.030;4.606;2023-09-08T03:55:40;801.58;;;44.30;;
43580;SDS011;29175;51.030;4.606;2023-09-08T03:58:07;402.42;;;21.17;;
43580;SDS011;29175;51.030;4.606;2023-09-08T04:00:33;370.20;;;20.48;;
43580;SDS011;29175;51.030;4.606;2023-09-08T04:03:00;401.67;;;23.23;;
43580;SDS011;29175;51.030;4.606;2023-09-08T04:05:27;442.58;;;25.73;;
43580;SDS011;29175;51.030;4.606;2023-09-08T04:07:53;478.30;;;23.95;;
43580;SDS011;29175;51.030;4.606;2023-09-08T04:10:18;584.53;;;28.05;;
43580;SDS011;29175;51.030;4.606;2023-09-08T04:12:45;841.50;;;33.97;;
43580;SDS011;29175;51.030;4.606;2023-09-08T04:15:12;536.05;;;29.15;;
43580;SDS011;29175;51.030;4.606;2023-09-08T04:17:38;405.10;;;23.65;;
43580;SDS011;29175;51.030;4.606;2023-09-08T04:20:04;337.98;;;19.23;;
43580;SDS011;29175;51.030;4.606;2023-09-08T04:22:30;433.17;;;26.85;;
43580;SDS011;29175;51.030;4.606;2023-09-08T04:27:26;311.40;;;18.60;;
43580;SDS011;29175;51.030;4.606;2023-09-08T04:29:52;533.53;;;24.35;;
43580;SDS011;29175;51.030;4.606;2023-09-08T04:32:18;707.92;;;33.15;;
43580;SDS011;29175;51.030;4.606;2023-09-08T04:34:44;489.30;;;25.58;;
43580;SDS011;29175;51.030;4.606;2023-09-08T04:37:16;557.88;;;28.08;;
43580;SDS011;29175;51.030;4.606;2023-09-08T04:39:42;417.00;;;26.90;;
43580;SDS011;29175;51.030;4.606;2023-09-08T04:42:10;205.52;;;16.48;;
43580;SDS011;29175;51.030;4.606;2023-09-08T04:44:38;359.02;;;20.55;;
43580;SDS011;29175;51.030;4.606;2023-09-08T04:47:04;160.05;;;17.92;;
43580;SDS011;29175;51.030;4.606;2023-09-08T04:49:31;661.50;;;28.73;;
43580;SDS011;29175;51.030;4.606;2023-09-08T04:51:58;593.60;;;30.45;;
43580;SDS011;29175;51.030;4.606;2023-09-08T04:54:23;301.27;;;21.73;;
43580;SDS011;29175;51.030;4.606;2023-09-08T04:56:53;257.35;;;17.75;;
43580;SDS011;29175;51.030;4.606;2023-09-08T04:59:20;523.42;;;28.33;;
43580;SDS011;29175;51.030;4.606;2023-09-08T05:01:47;314.63;;;23.02;;
43580;SDS011;29175;51.030;4.606;2023-09-08T05:04:14;532.47;;;27.50;;
43580;SDS011;29175;51.030;4.606;2023-09-08T05:06:41;530.72;;;30.08;;
43580;SDS011;29175;51.030;4.606;2023-09-08T05:09:07;361.80;;;22.15;;
43580;SDS011;29175;51.030;4.606;2023-09-08T05:11:34;535.80;;;29.67;;
43580;SDS011;29175;51.030;4.606;2023-09-08T05:14:01;305.00;;;17.55;;
43580;SDS011;29175;51.030;4.606;2023-09-08T05:16:28;317.10;;;18.77;;
43580;SDS011;29175;51.030;4.606;2023-09-08T05:19:23;158.32;;;14.88;;
43580;SDS011;29175;51.030;4.606;2023-09-08T05:21:53;432.83;;;24.40;;
43580;SDS011;29175;51.030;4.606;2023-09-08T05:24:20;560.33;;;30.23;;
43580;SDS011;29175;51.030;4.606;2023-09-08T05:26:49;237.00;;;15.90;;
43580;SDS011;29175;51.030;4.606;2023-09-08T05:29:15;272.10;;;17.80;;
43580;SDS011;29175;51.030;4.606;2023-09-08T05:31:42;273.35;;;20.38;;
43580;SDS011;29175;51.030;4.606;2023-09-08T05:34:08;70.00;;;14.02;;
43580;SDS011;29175;51.030;4.606;2023-09-08T05:36:35;378.45;;;19.77;;
43580;SDS011;29175;51.030;4.606;2023-09-08T05:39:04;314.00;;;19.02;;
43580;SDS011;29175;51.030;4.606;2023-09-08T05:43:59;165.33;;;13.10;;
43580;SDS011;29175;51.030;4.606;2023-09-08T05:46:25;486.75;;;27.25;;
43580;SDS011;29175;51.030;4.606;2023-09-08T05:48:51;488.90;;;24.52;;
43580;SDS011;29175;51.030;4.606;2023-09-08T05:51:16;290.90;;;20.45;;
43580;SDS011;29175;51.030;4.606;2023-09-08T05:53:42;391.83;;;25.65;;
43580;SDS011;29175;51.030;4.606;2023-09-08T05:56:10;354.17;;;20.73;;
43580;SDS011;29175;51.030;4.606;2023-09-08T05:58:35;384.30;;;21.77;;
43580;SDS011;29175;51.030;4.606;2023-09-08T06:01:01;663.55;;;32.38;;
43580;SDS011;29175;51.030;4.606;2023-09-08T06:03:32;317.25;;;23.13;;
43580;SDS011;29175;51.030;4.606;2023-09-08T06:05:57;691.78;;;31.73;;
43580;SDS011;29175;51.030;4.606;2023-09-08T06:08:23;347.95;;;23.95;;
43580;SDS011;29175;51.030;4.606;2023-09-08T06:10:49;630.17;;;30.85;;
43580;SDS011;29175;51.030;4.606;2023-09-08T06:13:15;486.15;;;25.30;;
43580;SDS011;29175;51.030;4.606;2023-09-08T06:15:40;555.95;;;37.83;;
43580;SDS011;29175;51.030;4.606;2023-09-08T06:18:06;393.83;;;21.85;;
43580;SDS011;29175;51.030;4.606;2023-09-08T06:20:32;598.88;;;29.38;;
43580;SDS011;29175;51.030;4.606;2023-09-08T06:22:58;837.53;;;34.35;;
43580;SDS011;29175;51.030;4.606;2023-09-08T06:25:23;639.05;;;29.42;;
43580;SDS011;29175;51.030;4.606;2023-09-08T06:27:49;705.80;;;36.95;;
43580;SDS011;29175;51.030;4.606;2023-09-08T06:30:14;1350.50;;;48.90;;
43580;SDS011;29175;51.030;4.606;2023-09-08T06:32:41;1625.90;;;69.10;;
43580;SDS011;29175;51.030;4.606;2023-09-08T06:35:07;1636.13;;;72.63;;
43580;SDS011;29175;51.030;4.606;2023-09-08T06:37:37;1744.43;;;75.80;;
43580;SDS011;29175;51.030;4.606;2023-09-08T06:40:04;1747.50;;;89.38;;
43580;SDS011;29175;51.030;4.606;2023-09-08T06:42:30;1389.68;;;61.05;;
43580;SDS011;29175;51.030;4.606;2023-09-08T06:44:56;1660.22;;;86.03;;
43580;SDS011;29175;51.030;4.606;2023-09-08T06:47:22;1464.07;;;85.13;;
43580;SDS011;29175;51.030;4.606;2023-09-08T06:49:47;1721.50;;;93.03;;
43580;SDS011;29175;51.030;4.606;2023-09-08T06:52:13;1642.80;;;85.30;;
43580;SDS011;29175;51.030;4.606;2023-09-08T06:54:39;1530.32;;;80.10;;
43580;SDS011;29175;51.030;4.606;2023-09-08T06:57:04;1536.53;;;90.72;;
43580;SDS011;29175;51.030;4.606;2023-09-08T06:59:30;1480.70;;;99.20;;
43580;SDS011;29175;51.030;4.606;2023-09-08T07:01:56;1706.68;;;100.32;;
43580;SDS011;29175;51.030;4.606;2023-09-08T07:04:21;1668.47;;;98.00;;
43580;SDS011;29175;51.030;4.606;2023-09-08T07:06:47;1324.63;;;80.10;;
43580;SDS011;29175;51.030;4.606;2023-09-08T07:09:15;1245.22;;;90.70;;
43580;SDS011;29175;51.030;4.606;2023-09-08T07:11:40;1421.32;;;93.10;;
43580;SDS011;29175;51.030;4.606;2023-09-08T07:14:06;1297.30;;;100.05;;
43580;SDS011;29175;51.030;4.606;2023-09-08T07:16:32;772.15;;;52.95;;
43580;SDS011;29175;51.030;4.606;2023-09-08T07:18:57;908.47;;;63.17;;
43580;SDS011;29175;51.030;4.606;2023-09-08T07:21:25;973.15;;;75.88;;
43580;SDS011;29175;51.030;4.606;2023-09-08T07:23:51;1125.95;;;69.10;;
43580;SDS011;29175;51.030;4.606;2023-09-08T07:26:18;1425.88;;;86.90;;
43580;SDS011;29175;51.030;4.606;2023-09-08T07:28:44;1403.85;;;99.47;;
43580;SDS011;29175;51.030;4.606;2023-09-08T07:31:10;928.65;;;65.18;;
43580;SDS011;29175;51.030;4.606;2023-09-08T07:33:36;1063.28;;;83.45;;
43580;SDS011;29175;51.030;4.606;2023-09-08T07:36:04;800.30;;;58.33;;
43580;SDS011;29175;51.030;4.606;2023-09-08T07:38:30;1528.43;;;104.20;;
43580;SDS011;29175;51.030;4.606;2023-09-08T07:40:56;993.72;;;71.28;;
43580;SDS011;29175;51.030;4.606;2023-09-08T07:43:24;906.08;;;72.03;;
43580;SDS011;29175;51.030;4.606;2023-09-08T07:45:50;1134.90;;;75.40;;
43580;SDS011;29175;51.030;4.606;2023-09-08T07:48:16;1238.00;;;71.70;;
43580;SDS011;29175;51.030;4.606;2023-09-08T07:50:42;1120.93;;;74.72;;
43580;SDS011;29175;51.030;4.606;2023-09-08T07:53:07;1223.30;;;77.78;;
43580;SDS011;29175;51.030;4.606;2023-09-08T07:55:33;864.47;;;55.22;;
43580;SDS011;29175;51.030;4.606;2023-09-08T07:58:00;981.20;;;67.50;;
43580;SDS011;29175;51.030;4.606;2023-09-08T08:00:28;1110.22;;;67.53;;
43580;SDS011;29175;51.030;4.606;2023-09-08T08:02:55;985.90;;;73.50;;
43580;SDS011;29175;51.030;4.606;2023-09-08T08:05:21;730.75;;;59.88;;
43580;SDS011;29175;51.030;4.606;2023-09-08T08:07:47;790.72;;;64.78;;
43580;SDS011;29175;51.030;4.606;2023-09-08T08:10:13;1119.53;;;78.30;;
43580;SDS011;29175;51.030;4.606;2023-09-08T08:12:39;867.80;;;58.63;;
43580;SDS011;29175;51.030;4.606;2023-09-08T08:15:07;805.90;;;63.33;;
43580;SDS011;29175;51.030;4.606;2023-09-08T08:17:35;1028.97;;;81.95;;
43580;SDS011;29175;51.030;4.606;2023-09-08T08:20:01;1401.05;;;106.13;;
43580;SDS011;29175;51.030;4.606;2023-09-08T08:22:38;951.65;;;69.07;;
43580;SDS011;29175;51.030;4.606;2023-09-08T08:25:04;800.85;;;53.08;;
43580;SDS011;29175;51.030;4.606;2023-09-08T08:27:30;730.00;;;59.17;;
43580;SDS011;29175;51.030;4.606;2023-09-08T08:29:56;780.17;;;62.60;;
43580;SDS011;29175;51.030;4.606;2023-09-08T08:32:25;835.17;;;58.40;;
43580;SDS011;29175;51.030;4.606;2023-09-08T08:34:51;735.13;;;51.38;;
43580;SDS011;29175;51.030;4.606;2023-09-08T08:37:17;1140.15;;;78.68;;
43580;SDS011;29175;51.030;4.606;2023-09-08T08:39:43;835.60;;;69.75;;
43580;SDS011;29175;51.030;4.606;2023-09-08T08:42:09;757.90;;;70.80;;
43580;SDS011;29175;51.030;4.606;2023-09-08T08:44:37;866.72;;;71.93;;
43580;SDS011;29175;51.030;4.606;2023-09-08T08:47:03;636.42;;;47.78;;
43580;SDS011;29175;51.030;4.606;2023-09-08T08:49:31;879.53;;;65.18;;
43580;SDS011;29175;51.030;4.606;2023-09-08T08:51:57;652.30;;;47.55;;
43580;SDS011;29175;51.030;4.606;2023-09-08T08:54:24;805.50;;;59.65;;
43580;SDS011;29175;51.030;4.606;2023-09-08T08:56:50;841.88;;;56.60;;
43580;SDS011;29175;51.030;4.606;2023-09-08T08:59:16;1080.00;;;91.68;;
43580;SDS011;29175;51.030;4.606;2023-09-08T09:01:43;1010.85;;;77.72;;
43580;SDS011;29175;51.030;4.606;2023-09-08T09:04:10;1293.35;;;90.25;;
43580;SDS011;29175;51.030;4.606;2023-09-08T09:06:35;966.58;;;77.90;;
43580;SDS011;29175;51.030;4.606;2023-09-08T09:09:02;1190.28;;;86.40;;
43580;SDS011;29175;51.030;4.606;2023-09-08T09:11:30;857.10;;;61.97;;
43580;SDS011;29175;51.030;4.606;2023-09-08T09:13:57;800.58;;;65.18;;
43580;SDS011;29175;51.030;4.606;2023-09-08T09:16:23;880.33;;;77.75;;
43580;SDS011;29175;51.030;4.606;2023-09-08T09:18:55;824.40;;;53.13;;
43580;SDS011;29175;51.030;4.606;2023-09-08T09:21:23;773.83;;;52.55;;
43580;SDS011;29175;51.030;4.606;2023-09-08T09:23:50;729.25;;;63.10;;
43580;SDS011;29175;51.030;4.606;2023-09-08T09:26:23;871.65;;;62.10;;
43580;SDS011;29175;51.030;4.606;2023-09-08T09:28:50;904.92;;;67.40;;
43580;SDS011;29175;51.030;4.606;2023-09-08T09:31:17;1050.80;;;84.18;;
43580;SDS011;29175;51.030;4.606;2023-09-08T09:33:44;906.00;;;76.28;;
43580;SDS011;29175;51.030;4.606;2023-09-08T09:36:10;773.22;;;65.35;;
43580;SDS011;29175;51.030;4.606;2023-09-08T09:38:45;930.22;;;68.00;;
43580;SDS011;29175;51.030;4.606;2023-09-08T09:41:12;1138.97;;;90.68;;
43580;SDS011;29175;51.030;4.606;2023-09-08T09:43:38;1216.80;;;92.30;;
43580;SDS011;29175;51.030;4.606;2023-09-08T09:46:07;969.63;;;67.20;;
43580;SDS011;29175;51.030;4.606;2023-09-08T09:48:33;717.47;;;67.32;;
43580;SDS011;29175;51.030;4.606;2023-09-08T09:51:02;618.60;;;46.03;;
43580;SDS011;29175;51.030;4.606;2023-09-08T09:53:44;967.10;;;68.25;;
43580;SDS011;29175;51.030;4.606;2023-09-08T09:56:10;948.83;;;81.13;;
43580;SDS011;29175;51.030;4.606;2023-09-08T09:58:37;703.97;;;64.97;;
43580;SDS011;29175;51.030;4.606;2023-09-08T10:01:03;815.88;;;67.90;;
43580;SDS011;29175;51.030;4.606;2023-09-08T10:03:30;1533.15;;;115.45;;
43580;SDS011;29175;51.030;4.606;2023-09-08T10:05:58;948.85;;;71.28;;
43580;SDS011;29175;51.030;4.606;2023-09-08T10:08:24;1111.03;;;96.80;;
43580;SDS011;29175;51.030;4.606;2023-09-08T10:10:50;926.42;;;82.55;;
43580;SDS011;29175;51.030;4.606;2023-09-08T10:13:39;767.72;;;79.65;;
43580;SDS011;29175;51.030;4.606;2023-09-08T10:16:07;762.20;;;74.05;;
43580;SDS011;29175;51.030;4.606;2023-09-08T10:18:34;1068.97;;;80.72;;
43580;SDS011;29175;51.030;4.606;2023-09-08T10:21:02;1033.13;;;76.53;;
43580;SDS011;29175;51.030;4.606;2023-09-08T10:23:37;883.70;;;81.43;;
43580;SDS011;29175;51.030;4.606;2023-09-08T10:26:09;1089.57;;;75.72;;
43580;SDS011;29175;51.030;4.606;2023-09-08T10:28:36;1311.82;;;84.22;;
43580;SDS011;29175;51.030;4.606;2023-09-08T10:31:02;1130.68;;;86.50;;
43580;SDS011;29175;51.030;4.606;2023-09-08T10:33:32;1193.03;;;79.03;;
43580;SDS011;29175;51.030;4.606;2023-09-08T10:36:00;1060.95;;;76.47;;
43580;SDS011;29175;51.030;4.606;2023-09-08T10:38:32;827.22;;;78.65;;
43580;SDS011;29175;51.030;4.606;2023-09-08T10:41:44;1117.60;;;80.78;;
43580;SDS011;29175;51.030;4.606;2023-09-08T10:44:03;1246.80;;;83.40;;
43580;SDS011;29175;51.030;4.606;2023-09-08T10:46:32;1455.25;;;96.78;;
43580;SDS011;29175;51.030;4.606;2023-09-08T10:49:03;1197.05;;;91.53;;
43580;SDS011;29175;51.030;4.606;2023-09-08T10:51:31;1169.78;;;101.63;;
43580;SDS011;29175;51.030;4.606;2023-09-08T10:53:59;994.53;;;81.32;;
43580;SDS011;29175;51.030;4.606;2023-09-08T10:59:18;1307.82;;;105.18;;
43580;SDS011;29175;51.030;4.606;2023-09-08T11:01:44;1406.05;;;93.72;;
43580;SDS011;29175;51.030;4.606;2023-09-08T11:04:12;1308.38;;;106.65;;
43580;SDS011;29175;51.030;4.606;2023-09-08T11:06:39;1359.90;;;102.82;;
43580;SDS011;29175;51.030;4.606;2023-09-08T11:09:08;1205.97;;;80.90;;
43580;SDS011;29175;51.030;4.606;2023-09-08T11:11:34;1873.05;;;111.40;;
43580;SDS011;29175;51.030;4.606;2023-09-08T11:14:02;926.80;;;60.72;;
43580;SDS011;29175;51.030;4.606;2023-09-08T11:16:28;1707.25;;;90.70;;
43580;SDS011;29175;51.030;4.606;2023-09-08T11:18:56;1128.63;;;68.90;;
43580;SDS011;29175;51.030;4.606;2023-09-08T11:21:22;1494.60;;;95.80;;
43580;SDS011;29175;51.030;4.606;2023-09-08T11:23:48;1590.45;;;97.72;;
43580;SDS011;29175;51.030;4.606;2023-09-08T11:26:14;1945.60;;;107.30;;
43580;SDS011;29175;51.030;4.606;2023-09-08T11:28:40;1240.93;;;84.68;;
43580;SDS011;29175;51.030;4.606;2023-09-08T11:31:07;1719.65;;;106.28;;
43580;SDS011;29175;51.030;4.606;2023-09-08T11:33:33;1384.93;;;80.13;;
43580;SDS011;29175;51.030;4.606;2023-09-08T11:36:10;1298.13;;;76.93;;
43580;SDS011;29175;51.030;4.606;2023-09-08T11:38:38;1610.93;;;93.68;;
43580;SDS011;29175;51.030;4.606;2023-09-08T11:41:03;1852.45;;;102.32;;
43580;SDS011;29175;51.030;4.606;2023-09-08T11:43:29;1642.38;;;88.28;;
43580;SDS011;29175;51.030;4.606;2023-09-08T11:45:58;1765.22;;;109.47;;
43580;SDS011;29175;51.030;4.606;2023-09-08T11:48:24;1020.72;;;69.22;;
43580;SDS011;29175;51.030;4.606;2023-09-08T11:50:53;1480.35;;;89.57;;
43580;SDS011;29175;51.030;4.606;2023-09-08T11:53:22;1399.35;;;81.40;;
43580;SDS011;29175;51.030;4.606;2023-09-08T11:55:49;1551.80;;;109.38;;
43580;SDS011;29175;51.030;4.606;2023-09-08T11:58:15;971.15;;;58.40;;
43580;SDS011;29175;51.030;4.606;2023-09-08T12:00:44;1699.65;;;101.20;;
43580;SDS011;29175;51.030;4.606;2023-09-08T12:03:11;1488.03;;;103.57;;
43580;SDS011;29175;51.030;4.606;2023-09-08T12:05:37;1883.85;;;121.55;;
43580;SDS011;29175;51.030;4.606;2023-09-08T12:08:04;1272.57;;;84.68;;
43580;SDS011;29175;51.030;4.606;2023-09-08T12:10:30;1025.15;;;63.55;;
43580;SDS011;29175;51.030;4.606;2023-09-08T12:13:03;1797.22;;;127.82;;
43580;SDS011;29175;51.030;4.606;2023-09-08T12:15:47;1136.90;;;89.43;;
43580;SDS011;29175;51.030;4.606;2023-09-08T12:18:13;1153.25;;;99.60;;
43580;SDS011;29175;51.030;4.606;2023-09-08T12:23:16;1342.75;;;94.45;;
43580;SDS011;29175;51.030;4.606;2023-09-08T12:25:46;1559.47;;;110.15;;
43580;SDS011;29175;51.030;4.606;2023-09-08T12:28:13;1476.20;;;102.20;;
43580;SDS011;29175;51.030;4.606;2023-09-08T12:30:39;1336.65;;;96.40;;
43580;SDS011;29175;51.030;4.606;2023-09-08T12:33:04;1404.00;;;95.55;;
43580;SDS011;29175;51.030;4.606;2023-09-08T12:35:30;1081.80;;;82.55;;
43580;SDS011;29175;51.030;4.606;2023-09-08T12:38:00;1288.00;;;87.38;;
43580;SDS011;29175;51.030;4.606;2023-09-08T12:40:27;1353.30;;;101.72;;
43580;SDS011;29175;51.030;4.606;2023-09-08T12:42:54;1622.22;;;116.40;;
43580;SDS011;29175;51.030;4.606;2023-09-08T12:45:21;1120.60;;;82.95;;
43580;SDS011;29175;51.030;4.606;2023-09-08T12:47:48;1345.65;;;112.43;;
43580;SDS011;29175;51.030;4.606;2023-09-08T12:50:14;1978.72;;;158.18;;
43580;SDS011;29175;51.030;4.606;2023-09-08T12:52:40;1603.70;;;121.05;;
43580;SDS011;29175;51.030;4.606;2023-09-08T12:55:06;1009.45;;;65.88;;
43580;SDS011;29175;51.030;4.606;2023-09-08T12:57:32;1182.47;;;77.43;;
43580;SDS011;29175;51.030;4.606;2023-09-08T12:59:58;1111.65;;;76.25;;
43580;SDS011;29175;51.030;4.606;2023-09-08T13:02:24;1477.50;;;107.57;;
43580;SDS011;29175;51.030;4.606;2023-09-08T13:04:49;1074.50;;;86.13;;
43580;SDS011;29175;51.030;4.606;2023-09-08T13:07:15;1221.40;;;79.88;;
43580;SDS011;29175;51.030;4.606;2023-09-08T13:09:41;921.10;;;64.00;;
43580;SDS011;29175;51.030;4.606;2023-09-08T13:12:07;1933.00;;;151.23;;
43580;SDS011;29175;51.030;4.606;2023-09-08T13:14:38;1504.20;;;88.97;;
43580;SDS011;29175;51.030;4.606;2023-09-08T13:17:08;1683.72;;;95.13;;
43580;SDS011;29175;51.030;4.606;2023-09-08T13:19:35;1618.43;;;117.90;;
43580;SDS011;29175;51.030;4.606;2023-09-08T13:22:02;1759.05;;;90.40;;
43580;SDS011;29175;51.030;4.606;2023-09-08T13:24:29;1999.90;;;125.13;;
43580;SDS011;29175;51.030;4.606;2023-09-08T13:26:56;1878.25;;;100.57;;
43580;SDS011;29175;51.030;4.606;2023-09-08T13:29:21;1748.65;;;96.55;;
43580;SDS011;29175;51.030;4.606;2023-09-08T13:31:47;1612.35;;;90.93;;
43580;SDS011;29175;51.030;4.606;2023-09-08T13:34:13;1660.57;;;92.75;;
43580;SDS011;29175;51.030;4.606;2023-09-08T13:36:39;1999.90;;;91.57;;
43580;SDS011;29175;51.030;4.606;2023-09-08T13:39:05;1999.90;;;118.30;;
43580;SDS011;29175;51.030;4.606;2023-09-08T13:44:28;1971.78;;;117.32;;
43580;SDS011;29175;51.030;4.606;2023-09-08T13:46:54;1678.50;;;81.30;;
43580;SDS011;29175;51.030;4.606;2023-09-08T13:49:20;1999.90;;;120.75;;
43580;SDS011;29175;51.030;4.606;2023-09-08T13:51:47;1497.47;;;98.70;;
43580;SDS011;29175;51.030;4.606;2023-09-08T13:54:16;1458.03;;;98.90;;
43580;SDS011;29175;51.030;4.606;2023-09-08T13:56:41;1986.38;;;109.07;;
43580;SDS011;29175;51.030;4.606;2023-09-08T13:59:08;1772.43;;;109.80;;
43580;SDS011;29175;51.030;4.606;2023-09-08T14:01:34;1537.18;;;94.72;;
43580;SDS011;29175;51.030;4.606;2023-09-08T14:04:01;1977.90;;;136.02;;
43580;SDS011;29175;51.030;4.606;2023-09-08T14:06:27;1255.95;;;74.90;;
43580;SDS011;29175;51.030;4.606;2023-09-08T14:08:53;1327.00;;;74.05;;
43580;SDS011;29175;51.030;4.606;2023-09-08T14:11:19;1395.32;;;79.70;;
43580;SDS011;29175;51.030;4.606;2023-09-08T14:13:46;1296.40;;;74.45;;
43580;SDS011;29175;51.030;4.606;2023-09-08T14:16:11;1569.15;;;101.63;;
43580;SDS011;29175;51.030;4.606;2023-09-08T14:18:37;1200.63;;;73.93;;
43580;SDS011;29175;51.030;4.606;2023-09-08T14:21:04;1934.95;;;118.40;;